createdAt,value
2022-07-29T04:45:53.501Z,54.41
2022-07-29T04:46:55.070Z,53.50
2022-07-29T04:47:54.531Z,54.00
2022-07-29T04:48:54.492Z,53.58
2022-07-29T04:49:54.444Z,53.78
2022-07-29T04:50:54.425Z,53.38
2022-07-29T04:51:54.436Z,53.58
2022-07-29T04:52:54.414Z,53.88
2022-07-29T04:53:54.420Z,53.67
2022-07-29T04:54:54.391Z,54.88
2022-07-29T04:55:54.374Z,53.27
2022-07-29T04:56:54.355Z,53.67
2022-07-29T04:57:54.369Z,53.47
2022-07-29T04:58:54.351Z,53.27
2022-07-29T04:59:54.332Z,53.65
2022-07-29T05:00:54.343Z,54.15
2022-07-29T05:01:54.412Z,53.45
2022-07-29T05:02:54.505Z,54.46
2022-07-29T05:03:59.859Z,53.85
2022-07-29T05:04:54.274Z,53.07
2022-07-29T05:05:54.267Z,53.95
2022-07-29T05:06:54.264Z,54.35
2022-07-29T05:07:54.260Z,53.85
2022-07-29T05:08:54.253Z,53.55
2022-07-29T05:09:54.223Z,53.85
2022-07-29T05:10:54.236Z,53.45
2022-07-29T05:11:54.204Z,54.46
2022-07-29T05:12:54.181Z,53.65
2022-07-29T05:13:54.206Z,54.46
2022-07-29T05:14:54.179Z,54.15
2022-07-29T05:15:54.251Z,54.05
2022-07-29T05:16:54.137Z,54.15
2022-07-29T05:17:54.145Z,54.05
2022-07-29T05:18:54.126Z,53.75
2022-07-29T05:19:54.123Z,53.45
2022-07-29T05:20:54.125Z,54.55
2022-07-29T05:21:54.095Z,53.25
2022-07-29T05:22:54.155Z,53.45
2022-07-29T05:23:54.077Z,54.75
2022-07-29T05:24:54.087Z,54.75
2022-07-29T05:25:54.051Z,54.75
2022-07-29T05:26:54.056Z,55.06
2022-07-29T05:27:54.037Z,54.15
2022-07-29T05:28:54.033Z,54.75
2022-07-29T05:29:54.019Z,54.66
2022-07-29T05:30:54.047Z,54.46
2022-07-29T05:31:53.986Z,54.35
2022-07-29T05:32:53.976Z,54.66
2022-07-29T05:33:53.961Z,55.06
2022-07-29T05:34:53.956Z,55.16
2022-07-29T05:35:58.530Z,54.75
2022-07-29T05:36:53.941Z,55.26
2022-07-29T05:37:53.913Z,55.16
2022-07-29T05:38:53.917Z,55.76
2022-07-29T05:39:56.714Z,55.06
2022-07-29T05:40:53.878Z,55.94
2022-07-29T05:41:53.899Z,54.15
2022-07-29T05:42:53.861Z,54.63
2022-07-29T05:43:53.893Z,53.92
2022-07-29T05:44:53.872Z,55.33
2022-07-29T05:45:53.903Z,53.42
2022-07-29T05:46:53.891Z,54.13
2022-07-29T05:47:53.811Z,53.42
2022-07-29T05:48:53.909Z,54.73
2022-07-29T05:49:53.801Z,54.33
2022-07-29T05:50:53.777Z,53.72
2022-07-29T05:51:53.771Z,54.43
2022-07-29T05:52:53.753Z,53.52
2022-07-29T05:53:53.752Z,54.63
2022-07-29T05:54:53.755Z,53.92
2022-07-29T05:55:53.726Z,54.53
2022-07-29T05:56:53.713Z,55.54
2022-07-29T05:57:53.739Z,54.13
2022-07-29T05:58:53.696Z,53.92
2022-07-29T05:59:53.714Z,53.83
2022-07-29T06:00:53.672Z,54.03
2022-07-29T06:01:53.764Z,54.73
2022-07-29T06:02:53.655Z,55.33
2022-07-29T06:03:53.773Z,54.83
2022-07-29T06:04:53.759Z,54.73
2022-07-29T06:05:53.627Z,54.03
2022-07-29T06:06:53.619Z,55.33
2022-07-29T06:07:53.600Z,54.91
2022-07-29T06:08:53.586Z,56.01
2022-07-29T06:09:53.598Z,55.51
2022-07-29T06:10:53.581Z,54.50
2022-07-29T06:11:53.557Z,53.80
2022-07-29T06:12:53.563Z,53.20
2022-07-29T06:13:53.540Z,53.70
2022-07-29T06:14:54.318Z,55.31
2022-07-29T06:15:53.617Z,53.77
2022-07-29T06:16:53.504Z,54.48
2022-07-29T06:17:59.139Z,53.67
2022-07-29T06:18:53.493Z,53.57
2022-07-29T06:19:53.491Z,54.68
2022-07-29T06:20:53.463Z,53.37
2022-07-29T06:21:53.472Z,52.67
2022-07-29T06:22:53.440Z,53.07
2022-07-29T06:23:53.431Z,53.07
2022-07-29T06:24:53.442Z,53.57
2022-07-29T06:25:53.533Z,54.58
2022-07-29T06:26:53.394Z,54.98
2022-07-29T06:27:53.406Z,55.68
2022-07-29T06:28:53.374Z,54.65
2022-07-29T06:29:53.382Z,53.25
2022-07-29T06:30:53.391Z,53.34
2022-07-29T06:31:53.347Z,56.16
2022-07-29T06:32:53.340Z,53.25
2022-07-29T06:33:54.674Z,51.74
2022-07-29T06:34:53.539Z,52.74
2022-07-29T06:35:55.246Z,52.22
2022-07-29T06:36:53.293Z,53.12
2022-07-29T06:37:53.893Z,52.12
2022-07-29T06:38:53.273Z,53.59
2022-07-29T06:39:57.906Z,52.09
2022-07-29T06:40:53.258Z,52.97
2022-07-29T06:41:53.245Z,52.17
2022-07-29T06:42:53.241Z,53.37
2022-07-29T06:43:55.411Z,52.64
2022-07-29T06:44:53.206Z,52.34
2022-07-29T06:45:53.274Z,50.24
2022-07-29T06:46:53.211Z,51.94
2022-07-29T06:47:53.202Z,51.24
2022-07-29T06:48:53.563Z,51.84
2022-07-29T06:49:53.167Z,53.34
2022-07-29T06:50:53.169Z,50.74
2022-07-29T06:51:53.133Z,50.04
2022-07-29T06:52:53.135Z,49.84
2022-07-29T06:54:00.667Z,52.55
2022-07-29T06:54:53.112Z,50.51
2022-07-29T06:55:53.111Z,52.22
2022-07-29T06:56:53.089Z,49.84
2022-07-29T06:57:53.073Z,50.13
2022-07-29T06:58:53.076Z,51.14
2022-07-29T06:59:53.060Z,51.94
2022-07-29T07:00:53.096Z,51.24
2022-07-29T07:01:53.126Z,50.54
2022-07-29T07:02:53.066Z,50.94
2022-07-29T07:03:53.011Z,52.75
2022-07-29T07:04:52.994Z,51.06
2022-07-29T07:05:52.995Z,52.34
2022-07-29T07:06:52.979Z,51.74
2022-07-29T07:07:52.962Z,51.74
2022-07-29T07:08:52.960Z,51.01
2022-07-29T07:09:52.954Z,52.12
2022-07-29T07:10:52.950Z,52.12
2022-07-29T07:11:52.924Z,50.79
2022-07-29T07:12:52.909Z,50.89
2022-07-29T07:13:52.897Z,52.09
2022-07-29T07:14:52.935Z,50.87
2022-07-29T07:15:52.888Z,50.57
2022-07-29T07:16:52.963Z,52.67
2022-07-29T07:17:52.854Z,50.16
2022-07-29T07:18:52.850Z,49.96
2022-07-29T07:19:52.831Z,52.64
2022-07-29T07:20:52.854Z,49.54
2022-07-29T07:21:52.810Z,49.07
2022-07-29T07:22:52.809Z,48.89
2022-07-29T07:23:52.784Z,49.89
2022-07-29T07:24:52.786Z,49.29
2022-07-29T07:25:52.774Z,49.87
2022-07-29T07:26:52.758Z,49.37
2022-07-29T07:27:52.744Z,49.07
2022-07-29T07:28:52.730Z,50.07
2022-07-29T07:29:52.737Z,50.34
2022-07-29T07:30:52.942Z,48.64
2022-07-29T07:31:56.289Z,49.66
2022-07-29T07:32:52.697Z,49.54
2022-07-29T07:33:52.718Z,50.34
2022-07-29T07:34:52.672Z,49.62
2022-07-29T07:35:52.685Z,49.74
2022-07-29T07:36:52.648Z,49.91
2022-07-29T07:37:52.635Z,50.12
2022-07-29T07:38:52.637Z,50.22
2022-07-29T07:39:52.605Z,49.04
2022-07-29T07:40:52.627Z,49.26
2022-07-29T07:41:52.596Z,49.66
2022-07-29T07:42:52.586Z,49.64
2022-07-29T07:43:52.567Z,51.32
2022-07-29T07:45:12.534Z,49.49
2022-07-29T07:45:52.625Z,50.39
2022-07-29T07:46:52.541Z,49.27
2022-07-29T07:47:52.526Z,46.97
2022-07-29T07:48:52.587Z,47.57
2022-07-29T07:49:52.505Z,49.74
2022-07-29T07:50:52.505Z,47.17
2022-07-29T07:51:52.477Z,47.67
2022-07-29T07:52:52.468Z,47.75
2022-07-29T07:53:52.464Z,48.63
2022-07-29T07:54:52.453Z,48.18
2022-07-29T07:56:10.075Z,46.16
2022-07-29T07:56:53.253Z,44.65
2022-07-29T07:57:52.461Z,43.63
2022-07-29T07:58:52.406Z,45.72
2022-07-29T07:59:52.388Z,44.62
2022-07-29T08:00:52.415Z,43.80
2022-07-29T08:01:55.910Z,45.50
2022-07-29T08:02:52.463Z,45.67
2022-07-29T08:03:52.361Z,45.06
2022-07-29T08:04:52.376Z,44.26
2022-07-29T08:05:52.354Z,44.76
2022-07-29T08:06:52.325Z,41.87
2022-07-29T08:07:52.305Z,42.94
2022-07-29T08:08:56.269Z,43.02
2022-07-29T08:09:52.301Z,41.44
2022-07-29T08:10:52.275Z,41.44
2022-07-29T08:11:52.521Z,42.51
2022-07-29T08:12:52.272Z,42.05
2022-07-29T08:13:52.240Z,41.71
2022-07-29T08:14:52.234Z,44.58
2022-07-29T08:15:52.241Z,44.56
2022-07-29T08:16:52.350Z,43.37
2022-07-29T08:17:52.208Z,43.54
2022-07-29T08:18:52.202Z,43.44
2022-07-29T08:19:52.175Z,42.49
2022-07-29T08:20:52.204Z,42.91
2022-07-29T08:21:52.597Z,42.93
2022-07-29T08:22:52.145Z,42.53
2022-07-29T08:23:58.708Z,44.60
2022-07-29T08:24:52.152Z,43.11
2022-07-29T08:25:52.130Z,44.10
2022-07-29T08:26:52.103Z,44.98
2022-07-29T08:27:52.135Z,42.37
2022-07-29T08:28:52.082Z,43.37
2022-07-29T08:29:52.080Z,43.07
2022-07-29T08:30:52.127Z,42.07
2022-07-29T08:31:52.494Z,42.27
2022-07-29T08:32:54.136Z,44.76
2022-07-29T08:33:52.023Z,44.68
2022-07-29T08:34:52.125Z,42.39
2022-07-29T08:35:52.069Z,42.81
2022-07-29T08:36:52.031Z,44.50
2022-07-29T08:37:52.023Z,44.01
2022-07-29T08:38:52.171Z,44.28
2022-07-29T08:39:51.974Z,45.15
2022-07-29T08:40:51.983Z,41.95
2022-07-29T08:41:57.205Z,45.14
2022-07-29T08:42:51.975Z,42.07
2022-07-29T08:43:51.917Z,42.85
2022-07-29T08:44:51.911Z,43.92
2022-07-29T08:45:51.992Z,42.13
2022-07-29T08:46:51.915Z,40.94
2022-07-29T08:47:51.883Z,40.72
2022-07-29T08:48:51.985Z,43.10
2022-07-29T08:49:51.853Z,42.11
2022-07-29T08:50:51.865Z,43.40
2022-07-29T08:51:51.879Z,41.12
2022-07-29T08:52:54.408Z,41.52
2022-07-29T08:53:51.834Z,43.68
2022-07-29T08:54:51.800Z,41.82
2022-07-29T08:55:51.868Z,42.31
2022-07-29T08:56:51.827Z,42.21
2022-07-29T08:57:54.158Z,40.74
2022-07-29T08:58:52.598Z,42.91
2022-07-29T08:59:51.740Z,42.31
2022-07-29T09:00:51.873Z,42.09
2022-07-29T09:01:51.932Z,40.88
2022-07-29T09:02:51.730Z,42.35
2022-07-29T09:03:51.775Z,40.44
2022-07-29T09:04:51.700Z,39.37
2022-07-29T09:05:51.716Z,40.74
2022-07-29T09:06:51.699Z,39.45
2022-07-29T09:07:51.657Z,40.15
2022-07-29T09:08:51.679Z,39.75
2022-07-29T09:09:51.661Z,38.76
2022-07-29T09:10:51.654Z,38.38
2022-07-29T09:11:52.188Z,39.01
2022-07-29T09:12:51.624Z,39.97
2022-07-29T09:13:51.591Z,38.17
2022-07-29T09:14:51.615Z,40.15
2022-07-29T09:15:51.569Z,39.23
2022-07-29T09:16:53.407Z,38.24
2022-07-29T09:17:51.591Z,38.21
2022-07-29T09:18:51.574Z,37.85
2022-07-29T09:19:51.555Z,38.61
2022-07-29T09:20:51.606Z,35.30
2022-07-29T09:21:51.548Z,36.90
2022-07-29T09:22:51.529Z,36.39
2022-07-29T09:23:51.621Z,38.51
2022-07-29T09:24:51.484Z,36.02
2022-07-29T09:25:51.546Z,35.75
2022-07-29T09:26:51.743Z,34.55
2022-07-29T09:27:51.448Z,33.13
2022-07-29T09:28:51.445Z,34.39
2022-07-29T09:29:51.556Z,34.13
2022-07-29T09:30:51.445Z,32.20
2022-07-29T09:31:51.496Z,32.36
2022-07-29T09:32:51.418Z,30.97
2022-07-29T09:33:51.414Z,32.33
2022-07-29T09:34:53.673Z,30.94
2022-07-29T09:35:56.358Z,31.51
2022-07-29T09:36:51.381Z,30.08
2022-07-29T09:37:51.347Z,31.76
2022-07-29T09:38:51.337Z,31.85
2022-07-29T09:39:51.380Z,33.20
2022-07-29T09:40:51.319Z,32.28
2022-07-29T09:41:51.440Z,31.37
2022-07-29T09:42:51.289Z,29.85
2022-07-29T09:43:51.278Z,30.56
2022-07-29T09:44:51.278Z,32.40
2022-07-29T09:45:51.280Z,31.79
2022-07-29T09:46:51.359Z,30.78
2022-07-29T09:47:51.250Z,29.66
2022-07-29T09:48:51.362Z,29.63
2022-07-29T09:49:51.214Z,28.74
2022-07-29T09:50:51.206Z,28.64
2022-07-29T09:51:51.209Z,28.61
2022-07-29T09:52:51.248Z,27.86
2022-07-29T09:53:51.173Z,28.93
2022-07-29T09:54:51.175Z,28.12
2022-07-29T09:55:51.702Z,28.40
2022-07-29T09:56:51.225Z,27.54
2022-07-29T09:57:51.153Z,28.58
2022-07-29T09:58:51.135Z,29.17
2022-07-29T09:59:51.165Z,29.64
2022-07-29T10:00:51.223Z,29.53
2022-07-29T10:01:51.103Z,28.96
2022-07-29T10:02:51.161Z,28.55
2022-07-29T10:03:51.194Z,29.03
2022-07-29T10:04:51.073Z,28.14
2022-07-29T10:05:51.075Z,29.00
2022-07-29T10:06:51.059Z,26.93
2022-07-29T10:07:53.894Z,27.34
2022-07-29T10:08:51.080Z,27.84
2022-07-29T10:09:51.021Z,27.76
2022-07-29T10:10:51.011Z,28.42
2022-07-29T10:11:51.033Z,27.51
2022-07-29T10:12:51.017Z,26.92
2022-07-29T10:13:50.974Z,27.69
2022-07-29T10:14:50.961Z,29.07
2022-07-29T10:15:51.028Z,26.41
2022-07-29T10:16:50.982Z,26.50
2022-07-29T10:17:50.925Z,29.39
2022-07-29T10:18:51.830Z,28.78
2022-07-29T10:19:50.900Z,31.16
2022-07-29T10:20:50.901Z,32.76
2022-07-29T10:21:54.975Z,32.84
2022-07-29T10:22:53.353Z,34.20
2022-07-29T10:23:50.859Z,34.59
2022-07-29T10:24:50.854Z,33.58
2022-07-29T10:25:50.897Z,34.38
2022-07-29T10:26:50.879Z,34.97
2022-07-29T10:27:50.853Z,33.72
2022-07-29T10:28:50.865Z,34.88
2022-07-29T10:29:50.816Z,38.90
2022-07-29T10:30:50.803Z,37.39
2022-07-29T10:31:50.930Z,35.30
2022-07-29T10:32:54.061Z,33.82
2022-07-29T10:33:50.772Z,35.02
2022-07-29T10:34:50.757Z,36.68
2022-07-29T10:35:50.828Z,34.74
2022-07-29T10:36:50.761Z,34.79
2022-07-29T10:37:50.719Z,34.44
2022-07-29T10:38:50.720Z,31.56
2022-07-29T10:39:50.717Z,33.20
2022-07-29T10:40:50.770Z,30.71
2022-07-29T10:41:50.710Z,32.48
2022-07-29T10:42:50.670Z,30.15
2022-07-29T10:43:51.255Z,30.33
2022-07-29T10:44:50.655Z,29.59
2022-07-29T10:45:50.652Z,30.73
2022-07-29T10:46:50.746Z,31.70
2022-07-29T10:47:50.621Z,30.47
2022-07-29T10:48:50.655Z,28.85
2022-07-29T10:49:50.601Z,28.94
2022-07-29T10:50:50.592Z,27.67
2022-07-29T10:51:50.597Z,30.23
2022-07-29T10:52:50.606Z,29.58
2022-07-29T10:53:50.561Z,30.11
2022-07-29T10:54:50.564Z,31.57
2022-07-29T10:55:50.540Z,32.56
2022-07-29T10:56:50.553Z,34.74
2022-07-29T10:57:54.099Z,33.12
2022-07-29T10:58:52.732Z,32.09
2022-07-29T10:59:50.502Z,31.23
2022-07-29T11:00:50.493Z,32.24
2022-07-29T11:01:53.600Z,32.86
2022-07-29T11:02:50.718Z,32.29
2022-07-29T11:03:52.477Z,33.03
2022-07-29T11:04:50.451Z,34.63
2022-07-29T11:05:50.506Z,33.82
2022-07-29T11:06:50.436Z,33.42
2022-07-29T11:07:50.430Z,34.51
2022-07-29T11:08:50.431Z,33.49
2022-07-29T11:09:50.405Z,35.76
2022-07-29T11:10:50.378Z,34.08
2022-07-29T11:11:58.367Z,32.80
2022-07-29T11:12:50.384Z,33.75
2022-07-29T11:13:50.351Z,32.05
2022-07-29T11:14:50.338Z,34.25
2022-07-29T11:15:50.334Z,33.11
2022-07-29T11:16:50.336Z,34.12
2022-07-29T11:17:52.149Z,34.58
2022-07-29T11:18:50.338Z,35.76
2022-07-29T11:19:52.279Z,36.24
2022-07-29T11:20:50.304Z,34.36
2022-07-29T11:21:54.724Z,35.37
2022-07-29T11:22:50.327Z,36.55
2022-07-29T11:23:50.267Z,36.65
2022-07-29T11:24:50.585Z,39.22
2022-07-29T11:25:52.365Z,37.03
2022-07-29T11:26:50.217Z,35.22
2022-07-29T11:27:50.220Z,35.52
2022-07-29T11:28:50.230Z,34.51
2022-07-29T11:29:50.193Z,33.84
2022-07-29T11:30:50.195Z,31.64
2022-07-29T11:31:50.171Z,30.50
2022-07-29T11:32:50.168Z,31.93
2022-07-29T11:33:56.432Z,30.40
2022-07-29T11:34:50.137Z,29.08
2022-07-29T11:36:00.629Z,32.57
2022-07-29T11:36:50.139Z,31.87
2022-07-29T11:37:52.811Z,30.78
2022-07-29T11:38:50.095Z,32.15
2022-07-29T11:39:50.082Z,30.33
2022-07-29T11:40:50.104Z,31.40
2022-07-29T11:41:50.065Z,31.32
2022-07-29T12:07:11.127Z,31.92
2022-07-29T12:07:20.408Z,38.90
2022-07-29T12:08:19.573Z,40.26
2022-07-29T12:09:19.535Z,38.51
2022-07-29T12:10:29.987Z,38.60
2022-07-29T12:11:21.211Z,40.41
2022-07-29T12:12:19.504Z,38.94
2022-07-29T12:13:19.508Z,39.73
2022-07-29T12:14:19.502Z,41.00
2022-07-29T12:15:20.373Z,41.69
2022-07-29T12:16:25.699Z,41.22
2022-07-29T12:17:19.503Z,42.80
2022-07-29T12:18:19.462Z,41.53
2022-07-29T12:19:19.431Z,46.19
2022-07-29T12:20:20.469Z,45.79
2022-07-29T12:21:19.405Z,44.23
2022-07-29T12:22:19.405Z,45.45
2022-07-29T12:23:19.420Z,45.25
2022-07-29T12:24:19.378Z,47.31
2022-07-29T12:25:34.843Z,45.32
2022-07-29T12:26:25.527Z,44.63
2022-07-29T12:27:19.351Z,44.21
2022-07-29T12:28:26.879Z,42.82
2022-07-29T12:29:20.006Z,43.71
2022-07-29T12:30:19.314Z,42.43
2022-07-29T12:31:43.119Z,40.55
2022-07-29T12:32:19.653Z,41.22
2022-07-29T12:33:19.292Z,42.21
2022-07-29T12:34:19.274Z,43.20
2022-07-29T12:35:19.271Z,41.52
2022-07-29T12:36:19.265Z,40.70
2022-07-29T12:37:19.248Z,44.56
2022-07-29T12:38:19.236Z,41.47
2022-07-29T12:39:19.222Z,41.18
2022-07-29T12:40:19.208Z,40.19
2022-07-29T12:41:19.187Z,40.78
2022-07-29T12:42:19.198Z,41.28
2022-07-29T12:43:19.181Z,38.60
2022-07-29T12:48:04.619Z,50.48
2022-07-29T12:48:51.087Z,50.10
2022-07-29T12:49:51.006Z,50.82
2022-07-29T12:50:50.984Z,51.52
2022-07-29T12:51:50.980Z,51.75
2022-07-29T12:52:50.965Z,52.84
2022-07-29T12:53:50.974Z,52.81
2022-07-29T12:54:50.956Z,52.49
2022-07-29T12:55:50.939Z,50.40
2022-07-29T12:56:50.921Z,50.98
2022-07-29T12:57:50.920Z,51.87
2022-07-29T12:58:51.533Z,50.75
2022-07-29T12:59:50.896Z,51.47
2022-07-29T13:00:50.904Z,50.48
2022-07-29T13:01:50.881Z,50.58
2022-07-29T13:02:50.929Z,51.30
2022-07-29T13:03:57.318Z,51.20
2022-07-29T13:04:50.856Z,52.00
2022-07-29T13:05:50.842Z,50.73
2022-07-29T13:06:51.130Z,51.12
2022-07-29T13:07:55.273Z,52.22
2022-07-29T13:08:50.891Z,52.22
2022-07-29T13:09:50.802Z,50.25
2022-07-29T13:10:50.788Z,53.53
2022-07-29T13:11:50.783Z,51.65
2022-07-29T13:12:50.775Z,50.95
2022-07-29T13:13:50.779Z,51.65
2022-07-29T13:14:50.757Z,50.78
2022-07-29T13:15:50.744Z,51.57
2022-07-29T13:16:50.787Z,52.67
2022-07-29T13:17:50.740Z,51.57
2022-07-29T13:18:50.720Z,52.54
2022-07-29T13:19:50.706Z,52.64
2022-07-29T13:20:50.697Z,51.95
2022-07-29T13:21:50.684Z,51.17
2022-07-29T13:22:50.671Z,52.59
2022-07-29T13:23:50.677Z,52.09
2022-07-29T13:24:50.652Z,52.32
2022-07-29T13:25:50.649Z,53.41
2022-07-29T13:26:50.636Z,52.81
2022-07-29T13:27:50.624Z,53.02
2022-07-29T13:28:50.628Z,52.32
2022-07-29T13:29:50.606Z,52.22
2022-07-29T13:30:50.659Z,51.72
2022-07-29T13:31:50.586Z,52.02
2022-07-29T13:32:50.575Z,51.75
2022-07-29T13:33:50.580Z,52.14
2022-07-29T13:34:50.553Z,52.94
2022-07-29T13:35:50.542Z,52.22
2022-07-29T13:36:50.529Z,51.75
2022-07-29T13:37:51.992Z,52.44
2022-07-29T13:38:50.518Z,52.02
2022-07-29T13:39:51.561Z,52.92
2022-07-29T13:40:50.486Z,51.62
2022-07-29T13:41:50.479Z,52.02
2022-07-29T13:42:50.464Z,51.79
2022-07-29T13:43:50.474Z,51.00
2022-07-29T13:44:50.444Z,51.20
2022-07-29T13:45:50.476Z,52.37
2022-07-29T13:46:50.425Z,52.47
2022-07-29T13:47:50.417Z,50.70
2022-07-29T13:48:50.475Z,52.42
2022-07-29T13:49:50.393Z,51.52
2022-07-29T13:50:50.375Z,53.11
2022-07-29T13:51:50.375Z,51.92
2022-07-29T13:52:50.361Z,52.42
2022-07-29T13:53:50.372Z,51.82
2022-07-29T13:54:50.342Z,52.49
2022-07-29T13:55:50.335Z,51.59
2022-07-29T13:56:50.309Z,52.22
2022-07-29T13:57:50.313Z,50.70
2022-07-29T13:58:50.311Z,51.42
2022-07-29T13:59:53.950Z,51.54
2022-07-29T14:00:50.344Z,52.72
2022-07-29T14:01:50.283Z,52.02
2022-07-29T14:02:50.254Z,52.22
2022-07-29T14:03:50.329Z,51.12
2022-07-29T14:04:50.438Z,51.65
2022-07-29T14:05:50.225Z,52.44
2022-07-29T14:06:50.211Z,51.84
2022-07-29T14:07:50.295Z,52.47
2022-07-29T14:08:50.296Z,53.66
2022-07-29T14:09:50.185Z,53.56
2022-07-29T14:10:50.175Z,53.27
2022-07-29T14:11:50.174Z,52.17
2022-07-29T14:12:50.145Z,52.47
2022-07-29T14:13:50.163Z,52.37
2022-07-29T14:14:50.125Z,53.06
2022-07-29T14:15:50.131Z,54.94
2022-07-29T14:16:52.361Z,52.04
2022-07-29T14:17:50.101Z,52.64
2022-07-29T14:18:50.098Z,51.95
2022-07-29T14:19:50.081Z,52.04
2022-07-29T14:20:50.061Z,53.14
2022-07-29T14:21:50.054Z,51.05
2022-07-29T14:22:50.043Z,51.15
2022-07-29T14:23:50.051Z,50.85
2022-07-29T14:24:50.018Z,51.15
2022-07-29T14:25:50.013Z,51.54
2022-07-29T14:26:50.151Z,51.35
2022-07-29T14:27:50.006Z,51.05
2022-07-29T14:28:49.988Z,50.23
2022-07-29T14:29:49.973Z,50.73
2022-07-29T14:30:49.960Z,51.29
2022-07-29T14:31:50.036Z,49.73
2022-07-29T14:32:49.961Z,49.13
2022-07-29T14:33:49.974Z,49.93
2022-07-29T14:34:49.968Z,50.32
2022-07-29T14:35:49.908Z,49.23
2022-07-29T14:36:49.899Z,49.43
2022-07-29T14:37:49.887Z,50.50
2022-07-29T14:38:49.885Z,49.60
2022-07-29T14:39:49.866Z,49.68
2022-07-29T14:40:50.927Z,49.28
2022-07-29T14:41:49.847Z,48.98
2022-07-29T14:42:49.829Z,48.61
2022-07-29T14:43:49.835Z,49.40
2022-07-29T14:44:49.813Z,49.51
2022-07-29T14:45:49.857Z,49.70
2022-07-29T14:46:49.791Z,49.70
2022-07-29T14:47:49.817Z,49.63
2022-07-29T14:48:49.838Z,50.02
2022-07-29T14:49:49.762Z,50.15
2022-07-29T14:50:49.745Z,51.15
2022-07-29T14:51:49.738Z,50.95
2022-07-29T14:52:49.728Z,50.74
2022-07-29T14:53:49.740Z,51.05
2022-07-29T14:54:49.705Z,50.85
2022-07-29T14:55:49.697Z,50.74
2022-07-29T14:56:49.684Z,51.05
2022-07-29T14:57:49.676Z,50.74
2022-07-29T14:58:51.924Z,50.65
2022-07-29T14:59:49.670Z,50.25
2022-07-29T15:00:49.695Z,50.95
2022-07-29T15:01:49.728Z,50.27
2022-07-29T15:03:01.822Z,51.27
2022-07-29T15:03:49.616Z,51.87
2022-07-29T15:04:49.614Z,51.47
2022-07-29T15:05:49.604Z,50.87
2022-07-29T15:06:49.574Z,50.77
2022-07-29T15:07:49.567Z,51.07
2022-07-29T15:08:49.581Z,50.77
2022-07-29T15:09:50.177Z,50.70
2022-07-29T15:10:49.534Z,51.89
2022-07-29T15:11:49.528Z,51.47
2022-07-29T15:12:49.516Z,50.67
2022-07-29T15:13:49.503Z,50.77
2022-07-29T15:14:49.513Z,51.57
2022-07-29T15:15:49.480Z,52.27
2022-07-29T15:16:49.561Z,52.39
2022-07-29T15:17:49.465Z,53.19
2022-07-29T15:18:49.458Z,53.69
2022-07-29T15:19:49.453Z,55.88
2022-07-29T15:20:49.430Z,53.69
2022-07-29T15:21:49.431Z,54.59
2022-07-29T15:22:49.409Z,54.79
2022-07-29T15:23:49.393Z,52.19
2022-07-29T15:24:49.407Z,52.89
2022-07-29T15:25:49.380Z,53.86
2022-07-29T15:26:49.371Z,51.87
2022-07-29T15:27:53.382Z,52.25
2022-07-29T15:28:49.354Z,51.95
2022-07-29T15:29:49.357Z,50.74
2022-07-29T15:30:49.330Z,51.54
2022-07-29T15:31:49.351Z,50.85
2022-07-29T15:32:49.306Z,51.12
2022-07-29T15:33:49.300Z,51.03
2022-07-29T15:34:49.311Z,50.52
2022-07-29T15:35:49.278Z,51.22
2022-07-29T15:36:52.341Z,49.90
2022-07-29T15:37:49.682Z,50.90
2022-07-29T15:38:49.241Z,50.38
2022-07-29T15:39:49.252Z,49.78
2022-07-29T15:40:49.227Z,49.46
2022-07-29T15:41:49.215Z,49.23
2022-07-29T15:42:49.208Z,48.44
2022-07-29T15:43:49.185Z,47.44
2022-07-29T15:44:49.234Z,48.56
2022-07-29T15:45:49.226Z,48.64
2022-07-29T15:46:49.163Z,47.82
2022-07-29T15:47:49.149Z,46.62
2022-07-29T15:48:49.158Z,47.80
2022-07-29T15:49:49.614Z,45.98
2022-07-29T15:50:49.119Z,45.86
2022-07-29T15:51:49.102Z,45.71
2022-07-29T15:52:49.101Z,45.89
2022-07-29T15:53:53.551Z,45.39
2022-07-29T15:54:49.101Z,45.21
2022-07-29T15:55:49.060Z,45.53
2022-07-29T15:56:49.056Z,46.03
2022-07-29T15:57:49.040Z,46.03
2022-07-29T15:58:49.033Z,46.45
2022-07-29T15:59:49.035Z,46.65
2022-07-29T16:00:49.062Z,47.42
2022-07-29T16:01:49.001Z,46.72
2022-07-29T16:02:48.997Z,47.62
2022-07-29T16:03:49.012Z,46.45
2022-07-29T16:04:49.017Z,47.25
2022-07-29T16:05:48.957Z,46.84
2022-07-29T16:06:48.945Z,46.62
2022-07-29T16:07:48.937Z,46.33
2022-07-29T16:08:48.930Z,45.63
2022-07-29T16:09:53.057Z,45.63
2022-07-29T16:10:48.911Z,46.33
2022-07-29T16:11:48.895Z,46.80
2022-07-29T16:12:48.887Z,45.73
2022-07-29T16:13:48.870Z,46.62
2022-07-29T16:14:48.911Z,47.22
2022-07-29T16:16:02.622Z,47.52
2022-07-29T16:16:48.894Z,46.92
2022-07-29T16:17:48.833Z,46.84
2022-07-29T16:18:48.828Z,48.04
2022-07-29T16:19:48.827Z,47.86
2022-07-29T16:20:48.817Z,48.16
2022-07-29T16:21:48.785Z,47.66
2022-07-29T16:22:48.787Z,47.99
2022-07-29T16:23:48.768Z,49.48
2022-07-29T16:24:48.780Z,47.89
2022-07-29T16:26:02.060Z,50.18
2022-07-29T16:26:48.743Z,49.48
2022-07-29T16:27:48.724Z,49.48
2022-07-29T16:28:48.729Z,49.08
2022-07-29T16:29:48.718Z,49.30
2022-07-29T16:30:48.703Z,49.80
2022-07-29T16:31:48.780Z,51.29
2022-07-29T16:32:48.686Z,51.27
2022-07-29T16:33:54.851Z,52.47
2022-07-29T16:34:48.669Z,50.48
2022-07-29T16:35:48.635Z,51.57
2022-07-29T16:36:48.633Z,50.68
2022-07-29T16:37:48.619Z,51.27
2022-07-29T16:38:48.636Z,50.40
2022-07-29T16:39:48.600Z,51.20
2022-07-29T16:40:48.591Z,51.72
2022-07-29T16:41:48.613Z,50.60
2022-07-29T16:42:48.585Z,51.79
2022-07-29T16:43:48.555Z,50.80
2022-07-29T16:44:48.571Z,51.92
2022-07-29T16:45:48.625Z,52.59
2022-07-29T16:46:48.666Z,53.49
2022-07-29T16:47:48.540Z,55.18
2022-07-29T16:48:48.697Z,54.36
2022-07-29T16:49:48.512Z,54.66
2022-07-29T16:50:48.489Z,55.95
2022-07-29T16:51:48.488Z,56.87
2022-07-29T16:52:48.474Z,56.27
2022-07-29T16:53:49.021Z,56.48
2022-07-29T16:54:48.734Z,57.97
2022-07-29T16:55:48.438Z,57.47
2022-07-29T16:56:48.428Z,57.77
2022-07-29T16:57:48.571Z,57.30
2022-07-29T16:58:48.452Z,59.02
2022-07-29T16:59:48.394Z,57.73
2022-07-29T17:00:48.387Z,58.42
2022-07-29T17:01:48.413Z,57.82
2022-07-29T17:02:48.362Z,58.92
2022-07-29T17:03:48.357Z,58.92
2022-07-29T17:04:48.336Z,58.23
2022-07-29T17:05:52.287Z,58.59
2022-07-29T17:06:48.330Z,59.09
2022-07-29T17:07:48.303Z,58.29
2022-07-29T17:08:48.311Z,57.97
2022-07-29T17:09:50.585Z,57.28
2022-07-29T17:10:48.294Z,57.15
2022-07-29T17:11:52.530Z,56.95
2022-07-29T17:12:48.272Z,57.42
2022-07-29T17:13:48.240Z,56.70
2022-07-29T17:14:48.246Z,56.49
2022-07-29T17:15:48.249Z,55.00
2022-07-29T17:17:00.627Z,55.53
2022-07-29T17:17:55.157Z,56.15
2022-07-29T17:18:48.195Z,56.05
2022-07-29T17:19:48.194Z,58.94
2022-07-29T17:20:48.168Z,58.74
2022-07-29T17:21:49.029Z,56.85
2022-07-29T17:22:48.152Z,56.45
2022-07-29T17:23:48.135Z,56.55
2022-07-29T17:24:48.144Z,56.25
2022-07-29T17:25:48.123Z,57.75
2022-07-29T17:26:48.111Z,58.14
2022-07-29T17:27:48.103Z,55.61
2022-07-29T17:28:48.093Z,57.90
2022-07-29T17:29:48.100Z,56.83
2022-07-29T17:30:48.067Z,56.83
2022-07-29T17:31:48.123Z,57.53
2022-07-29T17:32:48.045Z,57.50
2022-07-29T17:33:48.036Z,59.89
2022-07-29T17:34:48.047Z,57.70
2022-07-29T17:35:48.020Z,57.10
2022-07-29T17:36:48.017Z,58.00
2022-07-29T17:37:48.003Z,58.67
2022-07-29T17:38:48.011Z,57.57
2022-07-29T17:39:47.992Z,57.57
2022-07-29T17:40:47.970Z,56.57
2022-07-29T17:41:47.956Z,57.07
2022-07-29T17:42:47.947Z,57.67
2022-07-29T17:43:47.956Z,56.87
2022-07-29T17:44:47.925Z,57.77
2022-07-29T17:45:49.675Z,57.67
2022-07-29T17:46:47.961Z,56.77
2022-07-29T17:47:47.892Z,57.37
2022-07-29T17:48:47.940Z,57.57
2022-07-29T17:49:47.880Z,57.17
2022-07-29T17:50:47.875Z,58.27
2022-07-29T17:51:47.852Z,57.67
2022-07-29T17:52:47.847Z,57.37
2022-07-29T17:53:47.846Z,57.97
2022-07-29T17:54:47.822Z,58.07
2022-07-29T17:55:47.804Z,57.07
2022-07-29T17:56:47.805Z,57.40
2022-07-29T17:57:47.790Z,58.10
2022-07-29T17:58:47.796Z,57.80
2022-07-29T17:59:47.771Z,57.93
2022-07-29T18:00:47.869Z,58.03
2022-07-29T18:01:47.820Z,58.20
2022-07-29T18:02:47.804Z,57.70
2022-07-29T18:03:47.793Z,58.00
2022-07-29T18:04:48.022Z,58.70